Time;durP1;ratioP1;P1;durP2;ratioP2;P2;SDS_P1;SDS_P2;PMS_P1;PMS_P2;Temp;Humidity;BMP_temperature;BMP_pressure;BME280_temperature;BME280_humidity;BME280_pressure;Samples;Min_cycle;Max_cycle;Signal;HPM_P1;HPM_P2
2022/11/16 07:01:18;;;;;;;;;0.75;0.25;;;;;18.20;53.03;99649.41;5048451;28;46016;-72
2022/11/16 07:03:43;;;;;;;;;1.00;1.00;;;;;18.51;53.33;99648.03;5032244;28;45527;-73
2022/11/16 07:06:11;;;;;;;;;0.00;0.00;;;;;18.98;53.72;99649.34;5036636;28;45543;-71
2022/11/16 07:08:36;;;;;;;;;0.33;0.00;;;;;19.56;53.60;99651.28;5030307;28;45522;-72
2022/11/16 07:11:04;;;;;;;;;1.00;0.33;;;;;20.11;53.16;99655.13;5044967;28;48006;-72
2022/11/16 07:13:31;;;;;;;;;1.00;1.00;;;;;20.61;53.49;99652.25;5036108;28;45365;-72
2022/11/16 07:16:02;;;;;;;;;1.00;0.00;;;;;21.06;52.64;99663.31;5042523;28;45530;-73
2022/11/16 07:18:27;;;;;;;;;0.67;0.67;;;;;21.42;52.55;99656.50;5033291;28;45512;-72
2022/11/16 07:20:52;;;;;;;;;0.00;0.00;;;;;21.75;52.62;99665.38;5040389;28;45452;-73
2022/11/16 07:23:18;;;;;;;;;0.00;0.00;;;;;22.03;52.03;99671.00;5036432;28;46228;-73
2022/11/16 07:25:46;;;;;;;;;0.00;0.00;;;;;22.27;51.83;99666.38;5040333;28;45390;-73
2022/11/16 07:28:11;;;;;;;;;0.00;0.00;;;;;22.48;51.89;99665.63;5049042;28;45455;-72
2022/11/16 07:30:36;;;;;;;;;1.00;0.00;;;;;22.68;51.32;99675.88;5044558;28;45422;-74
2022/11/16 07:33:02;;;;;;;;;0.00;0.00;;;;;22.84;51.32;99668.59;5043685;28;56527;-74
2022/11/16 07:35:27;;;;;;;;;1.00;0.00;;;;;22.99;50.82;99665.84;5045440;28;45514;-73
2022/11/16 07:37:52;;;;;;;;;0.00;0.00;;;;;23.14;51.06;99671.22;5043406;28;45443;-73
2022/11/16 07:40:18;;;;;;;;;0.00;0.00;;;;;23.26;50.44;99668.84;5041325;28;57048;-73
2022/11/16 07:42:44;;;;;;;;;0.67;0.67;;;;;23.39;50.70;99665.47;5050109;28;45542;-74
2022/11/16 07:45:11;;;;;;;;;0.00;0.00;;;;;23.51;50.26;99669.31;5046080;28;45505;-74
2022/11/16 07:47:37;;;;;;;;;0.00;0.00;;;;;23.55;50.15;99662.47;5050494;28;45463;-74
2022/11/16 07:50:04;;;;;;;;;0.00;0.00;;;;;23.69;49.96;99670.72;5044420;28;45515;-74
2022/11/16 07:52:29;;;;;;;;;2.00;0.00;;;;;23.76;49.73;99668.06;5049530;28;46783;-74
2022/11/16 07:54:55;;;;;;;;;0.00;0.00;;;;;23.85;49.50;99666.03;5045722;28;45487;-74
2022/11/16 07:57:20;;;;;;;;;0.00;0.00;;;;;23.87;49.65;99661.28;5050980;28;45320;-74
2022/11/16 07:59:45;;;;;;;;;0.00;0.00;;;;;23.94;49.41;99667.56;5056354;28;53720;-74
2022/11/16 08:02:11;;;;;;;;;1.00;1.00;;;;;24.01;49.27;99668.47;5069418;27;45563;-74
2022/11/16 08:04:37;;;;;;;;;1.00;0.00;;;;;24.05;49.40;99663.47;5066875;27;45414;-73
2022/11/16 08:07:03;;;;;;;;;0.67;0.67;;;;;24.14;48.97;99675.03;5068750;28;45398;-74
2022/11/16 08:09:28;;;;;;;;;0.00;0.00;;;;;24.22;48.93;99674.88;5054747;27;46713;-74
2022/11/16 08:11:53;;;;;;;;;0.33;0.33;;;;;24.26;49.11;99662.59;5059312;28;45649;-72
2022/11/16 08:14:19;;;;;;;;;0.00;0.00;;;;;24.36;48.95;99673.06;5057479;28;45360;-72
2022/11/16 08:16:44;;;;;;;;;0.00;0.00;;;;;24.42;49.06;99655.16;5047753;28;45578;-74
2022/11/16 08:19:10;;;;;;;;;0.00;0.00;;;;;24.50;48.93;99652.31;5051893;28;53304;-73
2022/11/16 08:21:35;;;;;;;;;2.00;0.00;;;;;24.55;48.52;99643.53;5048431;28;46962;-73
2022/11/16 08:24:00;;;;;;;;;2.00;0.33;;;;;24.54;48.41;99655.44;5041611;28;51499;-72
2022/11/16 08:26:26;;;;;;;;;1.00;0.00;;;;;24.61;48.19;99653.59;5042619;28;45464;-72
2022/11/16 08:28:52;;;;;;;;;0.00;0.00;;;;;24.63;48.16;99662.38;5052259;28;46105;-72
2022/11/16 08:31:21;;;;;;;;;0.00;0.00;;;;;24.69;48.15;99669.69;5055044;28;45359;-72
2022/11/16 08:33:46;;;;;;;;;0.00;0.00;;;;;24.70;47.68;99671.38;5044515;28;45543;-73
2022/11/16 08:36:16;;;;;;;;;0.00;0.00;;;;;24.72;47.74;99672.00;5043271;28;45450;-74
2022/11/16 08:38:45;;;;;;;;;0.00;0.00;;;;;24.78;48.04;99683.94;5047648;28;46402;-74
2022/11/16 08:41:11;;;;;;;;;1.00;1.00;;;;;24.78;48.07;99680.38;5053099;28;45618;-74
2022/11/16 08:43:38;;;;;;;;;0.00;0.00;;;;;24.83;47.54;99678.78;5056823;28;45510;-74
2022/11/16 08:46:04;;;;;;;;;2.67;0.00;;;;;24.86;47.79;99682.94;5051467;28;45446;-74
2022/11/16 08:48:29;;;;;;;;;0.00;0.00;;;;;24.82;47.75;99668.06;5052089;28;45530;-74
2022/11/16 08:51:01;;;;;;;;;1.33;1.00;;;;;24.86;47.48;99672.09;5053008;28;45796;-74
2022/11/16 08:53:27;;;;;;;;;0.00;0.00;;;;;24.90;47.75;99656.22;5040730;28;45540;-75
2022/11/16 08:55:52;;;;;;;;;1.67;0.00;;;;;24.94;47.83;99669.22;5056531;28;46037;-74
2022/11/16 08:58:17;;;;;;;;;2.67;1.00;;;;;24.98;47.50;99666.91;5053795;28;64294;-74
2022/11/16 09:00:42;;;;;;;;;0.33;0.00;;;;;24.98;47.51;99667.72;5056416;28;48512;-75
2022/11/16 09:03:08;;;;;;;;;0.00;0.00;;;;;25.03;47.27;99672.56;5051910;28;45454;-75
2022/11/16 09:05:33;;;;;;;;;0.33;0.33;;;;;25.04;47.35;99666.09;5028783;28;45477;-75
2022/11/16 09:07:58;;;;;;;;;0.00;0.00;;;;;25.06;46.92;99663.19;5046455;28;46127;-75
2022/11/16 09:10:24;;;;;;;;;1.00;1.00;;;;;25.03;47.53;99653.56;5051209;28;45379;-75
2022/11/16 09:12:50;;;;;;;;;0.67;0.00;;;;;25.10;47.20;99653.56;5053908;28;45386;-76
2022/11/16 09:15:18;;;;;;;;;0.00;0.00;;;;;25.09;47.43;99651.91;5054237;28;45504;-73
2022/11/16 09:17:44;;;;;;;;;0.00;0.00;;;;;25.12;47.47;99660.47;5052441;28;46489;-72
2022/11/16 09:20:09;;;;;;;;;0.00;0.00;;;;;25.11;47.12;99656.09;5039431;28;45495;-74
2022/11/16 09:22:34;;;;;;;;;0.00;0.00;;;;;25.12;47.27;99657.75;5037628;28;45748;-75
2022/11/16 09:25:00;;;;;;;;;0.00;0.00;;;;;25.09;47.46;99654.63;5054540;28;45555;-75
2022/11/16 09:27:25;;;;;;;;;0.67;0.67;;;;;25.17;47.24;99661.75;5048693;28;45407;-78
2022/11/16 09:29:51;;;;;;;;;5.00;1.00;;;;;25.20;46.75;99661.31;5056598;28;45422;-72
2022/11/16 09:32:16;;;;;;;;;1.00;1.00;;;;;25.17;46.59;99654.41;5049294;28;45364;-75
2022/11/16 09:34:41;;;;;;;;;3.00;1.00;;;;;25.15;46.48;99655.66;5056190;28;45375;-73
2022/11/16 09:37:07;;;;;;;;;2.00;0.00;;;;;25.09;46.58;99655.44;5030419;28;47180;-71
2022/11/16 09:39:33;;;;;;;;;1.00;0.67;;;;;25.07;46.73;99645.84;5048092;28;63638;-72
2022/11/16 09:42:12;;;;;;;;;1.67;1.00;;;;;25.06;46.51;99642.28;5045836;28;45805;-71
2022/11/16 09:44:45;;;;;;;;;1.00;1.00;;;;;25.06;46.54;99636.84;5038516;28;45517;-71
2022/11/16 09:47:20;;;;;;;;;1.00;1.00;;;;;25.08;46.71;99636.66;5041650;28;46154;-72
2022/11/16 09:49:52;;;;;;;;;0.00;0.00;;;;;25.11;46.72;99638.97;5055960;28;45545;-71
2022/11/16 09:52:32;;;;;;;;;4.00;1.00;;;;;25.17;46.75;99631.88;5032204;28;45572;-72
2022/11/16 09:55:02;;;;;;;;;0.67;0.67;;;;;25.22;46.86;99632.91;5032642;28;45340;-75
2022/11/16 09:57:36;;;;;;;;;2.00;1.00;;;;;25.26;46.62;99625.22;5033137;28;46542;-74
2022/11/16 10:00:10;;;;;;;;;2.00;0.67;;;;;25.34;46.55;99624.97;5025029;28;45485;-72
2022/11/16 10:02:50;;;;;;;;;0.33;0.33;;;;;25.43;46.65;99632.94;5054835;28;45408;-72
2022/11/16 10:05:20;;;;;;;;;2.00;1.00;;;;;25.48;46.78;99630.44;5047309;28;45554;-72
2022/11/16 10:07:51;;;;;;;;;2.00;2.00;;;;;25.59;46.54;99629.00;5032732;28;46717;-71
2022/11/16 10:10:38;;;;;;;;;1.00;1.00;;;;;25.69;46.65;99632.13;5035278;28;45468;-73
2022/11/16 10:13:43;;;;;;;;;3.00;1.00;;;;;25.76;46.11;99632.94;5034203;28;45597;-73
2022/11/16 10:16:25;;;;;;;;;1.33;0.33;;;;;25.82;46.12;99638.63;5030910;28;45479;-73
2022/11/16 10:18:50;;;;;;;;;1.00;1.00;;;;;25.85;46.22;99625.44;5030049;28;45506;-73
2022/11/16 10:21:21;;;;;;;;;1.00;1.00;;;;;25.87;46.04;99631.47;5033741;28;45420;-74
2022/11/16 10:23:55;;;;;;;;;0.00;0.00;;;;;25.91;46.12;99637.31;5034862;28;46876;-71
2022/11/16 10:26:29;;;;;;;;;1.00;1.00;;;;;25.91;45.89;99643.59;5034209;28;45619;-73
2022/11/16 10:29:03;;;;;;;;;0.33;0.33;;;;;25.91;45.68;99642.75;5031793;28;45456;-73
2022/11/16 10:31:50;;;;;;;;;2.00;1.00;;;;;25.95;46.09;99643.19;5031361;28;45520;-74
2022/11/16 10:34:23;;;;;;;;;1.00;1.00;;;;;25.98;45.55;99631.88;5032132;28;45514;-75
2022/11/16 10:36:48;;;;;;;;;0.00;0.00;;;;;26.02;45.59;99633.97;5039412;28;45904;-74
2022/11/16 10:39:16;;;;;;;;;1.00;1.00;;;;;26.11;46.27;99631.84;5038553;28;45944;-74
2022/11/16 10:41:45;;;;;;;;;2.67;0.33;;;;;26.18;45.74;99640.00;5033101;28;45487;-72
2022/11/16 10:44:36;;;;;;;;;0.67;0.00;;;;;26.24;45.90;99622.00;5035427;28;45507;-74
2022/11/16 10:47:10;;;;;;;;;0.00;0.00;;;;;26.35;45.74;99623.25;5039622;28;45495;-72
2022/11/16 10:49:48;;;;;;;;;4.67;2.00;;;;;26.42;45.59;99616.75;5055208;28;46322;-72
2022/11/16 10:52:13;;;;;;;;;0.33;0.33;;;;;26.50;45.72;99609.38;5036106;28;46978;-72
2022/11/16 10:54:38;;;;;;;;;2.00;0.67;;;;;26.53;45.42;99612.47;5030260;28;45340;-72
2022/11/16 10:57:12;;;;;;;;;1.00;0.00;;;;;26.59;45.46;99594.47;5032991;28;51498;-71
2022/11/16 10:59:43;;;;;;;;;2.00;1.67;;;;;26.65;45.79;99598.22;5032870;28;46457;-73
2022/11/16 11:02:23;;;;;;;;;0.00;0.00;;;;;26.71;45.28;99589.16;5039054;28;45404;-72
2022/11/16 11:05:02;;;;;;;;;1.00;1.00;;;;;26.75;45.20;99595.84;5034547;28;45593;-73
2022/11/16 11:07:34;;;;;;;;;0.00;0.00;;;;;26.74;45.25;99587.91;5035230;28;45713;-72
2022/11/16 11:09:59;;;;;;;;;2.00;0.00;;;;;26.74;44.99;99575.13;5018924;28;48195;-71
2022/11/16 11:12:38;;;;;;;;;3.67;0.67;;;;;26.68;45.25;99578.72;5049011;28;45467;-72
2022/11/16 11:15:20;;;;;;;;;1.67;1.00;;;;;26.61;44.73;99581.50;5054716;28;45427;-72
2022/11/16 11:17:47;;;;;;;;;1.00;1.00;;;;;26.59;45.21;99572.69;5047211;28;46953;-72
2022/11/16 11:20:15;;;;;;;;;0.33;0.33;;;;;26.63;44.79;99570.38;5045977;28;46415;-73
2022/11/16 11:22:57;;;;;;;;;0.67;0.67;;;;;26.66;45.27;99569.94;5047099;28;45375;-72
2022/11/16 11:25:28;;;;;;;;;0.00;0.00;;;;;26.62;45.07;99557.81;5035297;28;45454;-71
2022/11/16 11:28:03;;;;;;;;;0.67;0.67;;;;;26.72;45.13;99579.94;5047600;28;45479;-73
2022/11/16 11:30:29;;;;;;;;;2.00;1.00;;;;;26.75;44.85;99584.13;5049416;28;45534;-72
2022/11/16 11:32:54;;;;;;;;;1.00;1.00;;;;;26.75;45.10;99568.63;5048469;28;45423;-72
2022/11/16 11:35:29;;;;;;;;;0.33;0.00;;;;;26.80;44.42;99571.53;5042902;28;45809;-71
2022/11/16 11:38:00;;;;;;;;;0.67;0.00;;;;;26.82;44.66;99574.84;5053576;28;45401;-71
2022/11/16 11:40:27;;;;;;;;;0.67;0.67;;;;;26.82;44.93;99574.03;5050709;28;46495;-72
2022/11/16 11:43:04;;;;;;;;;2.00;0.33;;;;;26.84;44.17;99571.91;5043458;28;45518;-73
2022/11/16 11:46:11;;;;;;;;;0.00;0.00;;;;;26.80;44.63;99560.66;5037801;28;45445;-72
2022/11/16 11:48:53;;;;;;;;;0.67;0.67;;;;;26.80;44.11;99566.09;5049176;28;45476;-71
2022/11/16 11:51:26;;;;;;;;;0.00;0.00;;;;;26.74;44.69;99549.78;5051726;28;46368;-71
2022/11/16 11:53:51;;;;;;;;;2.00;0.00;;;;;26.73;44.09;99559.03;5058425;28;45444;-72
2022/11/16 11:56:18;;;;;;;;;1.00;1.00;;;;;26.71;44.14;99561.97;5055892;28;45427;-71
2022/11/16 11:58:45;;;;;;;;;1.33;0.00;;;;;26.68;43.93;99556.94;5044002;28;45679;-71
2022/11/16 12:01:41;;;;;;;;;2.33;1.00;;;;;26.68;44.45;99559.66;5044004;28;45678;-72
2022/11/16 12:04:07;;;;;;;;;1.00;1.00;;;;;26.68;44.48;99560.50;5040257;28;45689;-72
2022/11/16 12:06:41;;;;;;;;;3.33;1.33;;;;;26.66;44.45;99550.91;5050275;28;45527;-72
2022/11/16 12:09:44;;;;;;;;;0.67;0.67;;;;;26.62;44.13;99550.50;5056350;28;45448;-72
2022/11/16 12:12:12;;;;;;;;;1.00;1.00;;;;;26.60;44.19;99554.50;4993691;28;46064;-71
2022/11/16 12:15:01;;;;;;;;;0.00;0.00;;;;;26.56;43.88;99544.03;4995166;28;45513;-72
2022/11/16 12:17:42;;;;;;;;;1.00;0.67;;;;;26.54;44.56;99542.59;4992373;28;45460;-72
2022/11/16 12:20:26;;;;;;;;;0.00;0.00;;;;;26.55;44.16;99545.09;4988241;28;45484;-72
2022/11/16 12:23:15;;;;;;;;;1.00;0.00;;;;;26.54;43.91;99539.88;4977381;28;46263;-72
2022/11/16 12:25:49;;;;;;;;;0.67;0.67;;;;;26.52;44.55;99537.38;4994856;28;45461;-72
2022/11/16 12:28:28;;;;;;;;;1.00;1.00;;;;;26.50;44.43;99538.63;4993149;28;45508;-71
2022/11/16 12:31:10;;;;;;;;;1.00;0.00;;;;;26.44;44.32;99529.44;4978139;28;45947;-72
2022/11/16 12:33:50;;;;;;;;;1.00;1.00;;;;;26.43;44.48;99528.63;4976604;28;47310;-72
2022/11/16 12:36:30;;;;;;;;;0.00;0.00;;;;;26.41;44.13;99519.03;4989634;28;45481;-71
2022/11/16 12:39:15;;;;;;;;;1.33;0.00;;;;;26.43;44.05;99522.34;4993475;28;45654;-70
2022/11/16 12:41:40;;;;;;;;;0.00;0.00;;;;;26.42;44.25;99510.66;4993904;28;45653;-71
2022/11/16 12:44:37;;;;;;;;;3.00;1.33;;;;;26.43;44.69;99511.47;5051178;28;45785;-72
2022/11/16 12:47:26;;;;;;;;;0.00;0.00;;;;;26.45;44.42;99501.22;4981481;28;45454;-72
2022/11/16 12:50:16;;;;;;;;;1.33;1.33;;;;;26.42;44.68;99498.91;4986165;28;45369;-72
2022/11/16 12:52:57;;;;;;;;;0.00;0.00;;;;;26.43;43.99;99495.13;4973662;28;45453;-72
2022/11/16 12:55:50;;;;;;;;;0.00;0.00;;;;;26.41;44.41;99489.91;4963365;28;46454;-71
2022/11/16 12:58:35;;;;;;;;;2.00;1.00;;;;;26.45;44.12;99490.31;4962578;28;45830;-72
2022/11/16 13:01:23;;;;;;;;;0.00;0.00;;;;;26.44;44.23;99494.06;4962669;28;45429;-72
2022/11/16 13:03:58;;;;;;;;;0.00;0.00;;;;;26.46;43.95;99492.00;4964852;28;45767;-71
2022/11/16 13:06:44;;;;;;;;;0.00;0.00;;;;;26.46;44.46;99493.88;4951874;28;48985;-71
2022/11/16 13:09:24;;;;;;;;;0.67;0.67;;;;;26.45;44.46;99476.72;4954506;28;45543;-71
2022/11/16 13:11:54;;;;;;;;;1.00;1.00;;;;;26.42;44.19;99478.00;4971926;28;45872;-71
2022/11/16 13:14:35;;;;;;;;;1.00;1.00;;;;;26.41;44.14;99457.25;4967087;28;46053;-71
2022/11/16 13:17:02;;;;;;;;;0.00;0.00;;;;;26.36;44.42;99459.00;4969501;28;46137;-70
2022/11/16 13:19:28;;;;;;;;;0.00;0.00;;;;;26.31;44.28;99459.63;4969743;28;45427;-72
2022/11/16 13:22:04;;;;;;;;;0.00;0.00;;;;;26.26;44.52;99448.59;4973135;28;45247;-72
2022/11/16 13:25:02;;;;;;;;;0.00;0.00;;;;;26.17;44.14;99450.69;5013765;28;45798;-71
2022/11/16 13:27:31;;;;;;;;;0.00;0.00;;;;;26.11;44.05;99438.81;5048904;28;47076;-72
2022/11/16 13:30:14;;;;;;;;;1.00;1.00;;;;;26.07;43.80;99439.47;5036228;28;45532;-72
2022/11/16 13:32:43;;;;;;;;;0.00;0.00;;;;;26.02;43.96;99434.66;5040589;28;46542;-71
2022/11/16 13:35:16;;;;;;;;;0.00;0.00;;;;;25.97;43.98;99426.31;5042276;28;45420;-72
2022/11/16 13:37:42;;;;;;;;;1.67;0.00;;;;;25.94;43.72;99424.06;5040960;28;45756;-72
2022/11/16 13:40:18;;;;;;;;;0.00;0.00;;;;;25.92;44.17;99416.13;5043281;28;45436;-72
2022/11/16 13:43:02;;;;;;;;;0.00;0.00;;;;;25.82;43.79;99396.72;5049253;28;45557;-70
2022/11/16 13:45:33;;;;;;;;;0.00;0.00;;;;;25.82;43.63;99408.41;5044453;28;45727;-73
2022/11/16 13:48:02;;;;;;;;;0.00;0.00;;;;;25.76;43.96;99407.38;5040198;28;46591;-74
2022/11/16 13:50:36;;;;;;;;;1.00;0.00;;;;;25.76;43.86;99384.84;5041086;28;45293;-73
2022/11/16 13:53:20;;;;;;;;;0.67;0.67;;;;;25.71;43.56;99392.81;5039994;28;45605;-73
2022/11/16 13:56:03;;;;;;;;;1.00;1.00;;;;;25.69;43.42;99405.75;5047405;28;45488;-73
2022/11/16 13:58:30;;;;;;;;;1.00;1.00;;;;;25.57;43.27;99394.72;5046314;28;46966;-73
2022/11/16 14:01:09;;;;;;;;;0.00;0.00;;;;;25.61;43.27;99407.69;5041094;28;45532;-73
2022/11/16 14:03:39;;;;;;;;;0.00;0.00;;;;;25.57;43.44;99389.28;5042690;28;45363;-74
2022/11/16 14:06:27;;;;;;;;;1.33;1.00;;;;;25.49;43.85;99388.47;5037579;28;45550;-76
2022/11/16 14:08:57;;;;;;;;;2.00;2.00;;;;;25.49;43.47;99390.34;4972067;28;45554;-76
2022/11/16 14:11:36;;;;;;;;;2.00;0.33;;;;;25.45;43.71;99384.50;4967849;28;45620;-77
2022/11/16 14:14:08;;;;;;;;;2.33;2.00;;;;;25.44;43.51;99379.28;4984398;28;45457;-76
2022/11/16 14:16:48;;;;;;;;;1.00;1.00;;;;;25.45;43.25;99379.06;4973893;28;45551;-77
2022/11/16 14:19:48;;;;;;;;;0.33;0.00;;;;;25.43;43.53;99370.31;4973106;28;45474;-76
2022/11/16 14:22:35;;;;;;;;;2.00;0.00;;;;;25.41;43.37;99374.31;4965130;28;45849;-75
2022/11/16 14:25:09;;;;;;;;;1.67;1.00;;;;;25.41;43.68;99368.88;4968941;28;45494;-76
2022/11/16 14:27:56;;;;;;;;;0.67;0.00;;;;;25.39;43.66;99364.47;4956370;28;46134;-76
2022/11/16 14:30:42;;;;;;;;;0.00;0.00;;;;;25.37;43.56;99353.00;4955321;28;46344;-75
2022/11/16 14:33:22;;;;;;;;;3.00;0.00;;;;;25.36;43.27;99354.03;4973055;28;45795;-76
2022/11/16 14:35:52;;;;;;;;;1.00;1.00;;;;;25.27;43.06;99336.31;4960103;28;45526;-76
2022/11/16 14:38:40;;;;;;;;;1.00;1.00;;;;;25.32;43.45;99341.94;4957848;28;45686;-76
2022/11/16 14:41:17;;;;;;;;;0.33;0.33;;;;;25.28;43.61;99321.69;4972497;28;45520;-75
2022/11/16 14:43:46;;;;;;;;;2.00;2.00;;;;;25.30;43.74;99332.34;4961335;28;45518;-75
2022/11/16 14:46:25;;;;;;;;;1.00;1.00;;;;;25.21;43.31;99323.56;5008900;28;45618;-75
2022/11/16 14:48:54;;;;;;;;;0.33;0.33;;;;;25.28;43.48;99318.97;5040098;28;45324;-76
2022/11/16 14:51:24;;;;;;;;;1.00;1.00;;;;;25.27;43.60;99314.59;5036739;28;46538;-77
2022/11/16 14:53:58;;;;;;;;;0.00;0.00;;;;;25.24;43.14;99296.00;5040499;28;45468;-77
2022/11/16 14:56:23;;;;;;;;;0.00;0.00;;;;;25.22;43.54;99289.97;5048085;28;45749;-74
2022/11/16 14:58:57;;;;;;;;;1.00;1.00;;;;;25.25;43.56;99284.09;5034417;28;45468;-72
2022/11/16 15:01:27;;;;;;;;;0.00;0.00;;;;;25.22;43.40;99271.78;5039199;28;46339;-73
2022/11/16 15:03:57;;;;;;;;;0.00;0.00;;;;;25.21;43.67;99259.25;5034370;28;45380;-72
2022/11/16 15:06:24;;;;;;;;;0.67;0.67;;;;;25.30;43.35;99264.47;5034334;28;45361;-73
2022/11/16 15:08:58;;;;;;;;;1.00;1.00;;;;;25.29;43.41;99254.66;5035970;28;45475;-74
2022/11/16 15:12:40;;;;;;;;;1.67;1.00;;;;;25.26;42.94;99248.59;5053020;28;45336;-73
2022/11/16 15:14:20;;;;;;;;;2.00;1.00;;;;;25.27;43.37;99244.81;5048187;28;45429;-73
2022/11/16 15:16:50;;;;;;;;;1.00;1.00;;;;;25.26;43.39;99232.28;5040817;28;45479;-74
2022/11/16 15:19:15;;;;;;;;;0.67;0.67;;;;;25.24;43.58;99223.53;5050545;28;45459;-74
2022/11/16 15:21:50;;;;;;;;;1.00;1.00;;;;;25.32;43.37;99217.03;5044835;28;45999;-73
2022/11/16 15:24:24;;;;;;;;;2.33;1.00;;;;;25.39;43.34;99217.81;5048651;28;45443;-72
2022/11/16 15:26:50;;;;;;;;;1.67;1.67;;;;;25.43;43.59;99201.94;5053655;28;45586;-73
2022/11/16 15:29:17;;;;;;;;;1.00;1.00;;;;;25.50;43.42;99194.56;5059483;28;45467;-72
2022/11/16 15:31:43;;;;;;;;;0.00;0.00;;;;;25.50;43.50;99185.59;5054516;28;48160;-72
2022/11/16 15:34:13;;;;;;;;;0.67;0.67;;;;;25.57;43.30;99158.38;5057481;28;45525;-72
2022/11/16 15:36:39;;;;;;;;;1.00;1.00;;;;;25.56;42.98;99154.00;5057967;28;45428;-73
2022/11/16 15:39:11;;;;;;;;;3.00;2.00;;;;;25.52;43.36;99146.28;5054429;28;45416;-73
2022/11/16 15:41:37;;;;;;;;;0.33;0.33;;;;;25.51;43.05;99147.31;5048425;28;46071;-72
2022/11/16 15:44:04;;;;;;;;;2.00;0.33;;;;;25.56;43.58;99143.16;5052257;28;45333;-72
2022/11/16 15:46:34;;;;;;;;;1.00;1.00;;;;;25.59;43.07;99137.28;5040423;28;45524;-72
2022/11/16 15:49:00;;;;;;;;;0.67;0.33;;;;;25.61;43.45;99140.59;5038269;28;45402;-72
2022/11/16 15:51:31;;;;;;;;;2.00;2.00;;;;;25.63;43.19;99128.44;5039391;28;46540;-73
2022/11/16 15:54:23;;;;;;;;;3.00;3.00;;;;;25.70;42.95;99122.16;5048111;28;45508;-72
2022/11/16 15:56:52;;;;;;;;;1.67;1.00;;;;;25.69;43.64;99101.44;5048500;28;45492;-73
2022/11/16 15:59:31;;;;;;;;;2.00;2.00;;;;;25.74;43.55;99112.47;5041788;28;45436;-72
2022/11/16 16:01:56;;;;;;;;;3.67;2.00;;;;;25.74;43.05;99090.72;5041330;28;46581;-72
2022/11/16 16:04:22;;;;;;;;;0.33;0.33;;;;;25.76;43.46;99088.66;5037886;28;45485;-71
2022/11/16 16:06:56;;;;;;;;;1.00;1.00;;;;;25.77;43.46;99084.88;5044656;28;45648;-73
2022/11/16 16:09:33;;;;;;;;;2.67;1.00;;;;;25.75;42.98;99087.00;5044660;28;48216;-73
2022/11/16 16:12:15;;;;;;;;;4.33;2.00;;;;;25.70;43.17;99076.78;5046772;28;45591;-75
2022/11/16 16:14:41;;;;;;;;;2.33;0.67;;;;;25.62;43.18;99075.19;5048537;28;45567;-74
2022/11/16 16:17:09;;;;;;;;;1.33;1.33;;;;;25.53;42.80;99080.03;5041187;28;46234;-74
2022/11/16 16:19:44;;;;;;;;;3.00;1.33;;;;;25.49;42.76;99069.81;5024899;28;45574;-74
2022/11/16 16:22:32;;;;;;;;;2.00;2.00;;;;;25.46;43.08;99064.84;5047845;28;45450;-75
2022/11/16 16:25:00;;;;;;;;;3.00;1.00;;;;;25.43;42.88;99057.16;5031430;28;45460;-75
2022/11/16 16:27:27;;;;;;;;;4.33;2.00;;;;;25.37;43.33;99050.72;5035658;28;45539;-75
2022/11/16 16:29:56;;;;;;;;;2.00;0.00;;;;;25.34;42.78;99054.69;5050084;28;45529;-75
2022/11/16 16:32:30;;;;;;;;;2.33;1.00;;;;;25.27;43.23;99043.88;5045362;28;45451;-75
2022/11/16 16:34:58;;;;;;;;;2.33;2.00;;;;;25.27;42.76;99049.31;5035665;28;45842;-74
2022/11/16 16:37:29;;;;;;;;;3.33;1.33;;;;;25.23;43.21;99039.97;5036834;28;45377;-75
2022/11/16 16:39:54;;;;;;;;;5.67;3.67;;;;;25.25;42.67;99039.72;5047275;28;45464;-75
2022/11/16 16:42:20;;;;;;;;;4.00;3.00;;;;;25.24;43.05;99043.50;5022430;28;46918;-75
2022/11/16 16:44:47;;;;;;;;;2.00;1.00;;;;;25.18;43.20;99028.91;5057091;28;45695;-75
2022/11/16 16:47:13;;;;;;;;;1.67;1.00;;;;;25.13;42.94;99018.75;5043797;28;45375;-75
2022/11/16 16:49:39;;;;;;;;;3.67;2.67;;;;;25.09;43.09;99008.56;5023388;28;45380;-75
2022/11/16 16:52:05;;;;;;;;;1.00;1.00;;;;;25.07;42.96;98991.66;5055027;28;46471;-75
2022/11/16 16:54:31;;;;;;;;;1.00;0.00;;;;;25.08;43.13;98990.59;5039397;28;45354;-75
2022/11/16 16:56:57;;;;;;;;;3.00;1.00;;;;;25.05;42.93;99005.44;5036542;28;45320;-75
2022/11/16 16:59:23;;;;;;;;;0.67;0.33;;;;;25.04;42.93;99014.63;5046971;28;45357;-75
2022/11/16 17:01:50;;;;;;;;;2.00;2.00;;;;;25.02;42.79;98999.63;5046849;28;45486;-75
2022/11/16 17:04:16;;;;;;;;;1.67;1.00;;;;;25.01;43.05;99001.50;5051991;28;45788;-75
2022/11/16 17:06:42;;;;;;;;;2.33;1.00;;;;;24.96;42.80;98995.91;5046556;28;45499;-75
2022/11/16 17:09:07;;;;;;;;;5.00;2.67;;;;;24.96;43.12;98998.63;5051916;28;45815;-75
2022/11/16 17:11:32;;;;;;;;;1.67;1.67;;;;;24.95;43.17;98988.81;5053625;28;46394;-75
2022/11/16 17:13:58;;;;;;;;;0.67;0.67;;;;;24.94;43.31;98968.16;5037455;28;45440;-75
2022/11/16 17:16:24;;;;;;;;;3.00;1.00;;;;;24.93;43.28;98963.78;5046365;28;46100;-75
2022/11/16 17:18:54;;;;;;;;;1.00;1.00;;;;;24.90;43.19;98958.81;5036343;28;45462;-75
2022/11/16 17:21:19;;;;;;;;;2.00;0.67;;;;;24.90;42.92;98953.38;5048011;28;45493;-75
2022/11/16 17:23:45;;;;;;;;;1.67;1.67;;;;;24.88;42.96;98942.75;5036324;28;45337;-75
2022/11/16 17:26:10;;;;;;;;;1.00;1.00;;;;;24.86;43.15;98945.66;5058633;28;45767;-75
2022/11/16 17:28:36;;;;;;;;;2.00;0.33;;;;;24.85;43.11;98943.19;5028939;28;48746;-75
2022/11/16 17:31:11;;;;;;;;;2.00;0.67;;;;;24.84;43.31;98944.22;5048883;28;45481;-75
2022/11/16 17:33:39;;;;;;;;;1.33;0.00;;;;;24.81;43.17;98941.94;5041823;28;45545;-75
2022/11/16 17:36:05;;;;;;;;;2.00;1.00;;;;;24.83;43.17;98943.41;5047935;28;45538;-75
2022/11/16 17:38:34;;;;;;;;;0.67;0.67;;;;;24.78;43.22;98913.38;5036188;28;45511;-75
2022/11/16 17:41:11;;;;;;;;;2.33;1.00;;;;;24.81;43.10;98914.81;5043543;28;45590;-75
2022/11/16 17:43:37;;;;;;;;;1.00;1.00;;;;;24.79;42.82;98906.88;5050967;28;45461;-75
2022/11/16 17:46:10;;;;;;;;;2.67;1.00;;;;;24.77;42.93;98894.59;5038086;28;45396;-74
2022/11/16 17:48:37;;;;;;;;;2.00;0.33;;;;;24.77;42.91;98884.56;5044234;28;45520;-76
2022/11/16 17:51:03;;;;;;;;;5.00;2.00;;;;;24.75;43.06;98881.25;5053028;28;46089;-76
2022/11/16 17:53:28;;;;;;;;;2.00;0.00;;;;;24.74;42.96;98887.72;5036026;28;45762;-76
2022/11/16 17:55:53;;;;;;;;;2.00;0.00;;;;;24.69;43.00;98880.25;5036268;28;45399;-76
2022/11/16 17:58:19;;;;;;;;;1.00;1.00;;;;;24.71;43.04;98883.59;5050565;28;45427;-76
2022/11/16 18:00:47;;;;;;;;;0.33;0.33;;;;;24.68;42.81;98880.50;5034295;28;46550;-76
2022/11/16 18:03:13;;;;;;;;;0.00;0.00;;;;;24.68;43.11;98877.78;5053713;28;45795;-76
2022/11/16 18:05:38;;;;;;;;;0.67;0.67;;;;;24.69;42.96;98879.44;5050551;28;45986;-76
2022/11/16 18:08:04;;;;;;;;;1.00;1.00;;;;;24.69;43.17;98876.72;5050221;28;45611;-76
2022/11/16 18:10:30;;;;;;;;;3.00;0.33;;;;;24.69;43.22;98863.16;5051487;28;46049;-76
2022/11/16 18:12:55;;;;;;;;;2.67;1.33;;;;;24.68;42.69;98858.78;5055309;28;45545;-75
2022/11/16 18:15:20;;;;;;;;;2.00;0.00;;;;;24.67;43.19;98849.81;5054805;28;45803;-75
2022/11/16 18:17:46;;;;;;;;;2.00;0.00;;;;;24.65;43.27;98838.38;5053986;28;45498;-73
2022/11/16 18:20:11;;;;;;;;;0.00;0.00;;;;;24.64;42.88;98831.25;5049209;28;46220;-73
2022/11/16 18:22:37;;;;;;;;;1.00;1.00;;;;;24.64;43.07;98822.31;5053484;28;45474;-73
2022/11/16 18:25:02;;;;;;;;;1.00;1.00;;;;;24.66;42.96;98809.34;5049643;28;51843;-76
2022/11/16 18:27:27;;;;;;;;;0.67;0.67;;;;;24.68;43.24;98812.69;5044980;28;45710;-76
2022/11/16 18:29:53;;;;;;;;;2.00;0.33;;;;;24.65;43.07;98794.97;5023510;28;48493;-76
2022/11/16 18:32:18;;;;;;;;;1.33;1.33;;;;;24.64;42.98;98774.28;5047291;28;47661;-76
2022/11/16 18:34:43;;;;;;;;;1.33;0.00;;;;;24.66;43.08;98771.38;5048285;28;45409;-75
2022/11/16 18:37:09;;;;;;;;;1.00;1.00;;;;;24.67;43.02;98767.59;5051205;28;45648;-75
2022/11/16 18:39:34;;;;;;;;;4.00;1.00;;;;;24.65;43.06;98769.72;5045042;28;45721;-76
2022/11/16 18:42:00;;;;;;;;;1.00;1.00;;;;;24.67;43.10;98757.59;5043095;28;45548;-75
2022/11/16 18:44:25;;;;;;;;;0.33;0.00;;;;;24.64;43.09;98749.88;5026546;28;45321;-75
2022/11/16 18:46:50;;;;;;;;;1.00;1.00;;;;;24.60;43.35;98756.81;5047978;28;45535;-73
2022/11/16 18:49:16;;;;;;;;;0.00;0.00;;;;;24.61;43.12;98734.88;5034548;28;52432;-73
2022/11/16 18:51:41;;;;;;;;;3.00;3.00;;;;;24.60;43.00;98737.81;5033942;28;45391;-72
2022/11/16 18:54:07;;;;;;;;;1.33;1.33;;;;;24.59;42.95;98747.88;5046685;28;45570;-72